Main page
METAR-TAF:

METAR-TAF

Airports :

Hans Christian Andersen Airport

Odense, Denmark

latitude: 55-29N, longitude: 010-20E, elevation: 17 m

Current weather observation

The report was made 7 hours and 22 minutes ago, at 15:50 UTC
Wind 10 kt from the Southwest, varying between South and West
Temperature 13°C
Humidity 72%
Pressure 1014 hPa
Visibility 10 km or more
Few clouds at a height of 3600 ft
Broken clouds at a height of 6500 ft

METAR: EKOD 131550Z 22010KT 190V260 9999 FEW036 BKN065 13/08 Q1014

Time: 01:12 (23:12 UTC)

Forecast

The report was made 11 hours and 10 minutes ago, at 12:02 UTC
Forecast valid from 13 at 12 UTC to 13 at 16 UTC
Wind 10 kt from the Southwest
Visibility 10 km or more
Scattered clouds at a height of 2500 ft
Temporary
from 13 at 12 UTC to 13 at 16 UTC
Scattered clouds at a height of 2000 ft, Cumulonimbus.
rain showers,

TAF: EKOD 131202Z 1312/1316 23010KT 9999 SCT025 TEMPO 1312/1316 SHRA SCT020CB

Weather observations and forecasts of more than 4000 airports (METAR and TAF reports).

The available stations are represented by yellow and red dots on the map.

Hover mouse over dot to see the name of the station.

Then click to see weather observations and forecasts.

To change the map : click on the green buttons with a black cross to zoom in, on the green button with a dash to zoom out, or on the green arrows for adjacent maps.


METAR-TAF: